createdAt,value
2022-10-26T00:01:27.375Z,14.23
2022-10-26T00:03:57.738Z,14.83
2022-10-26T00:06:28.985Z,32.40
2022-10-26T00:08:59.438Z,20.10
2022-10-26T00:11:27.938Z,27.27
2022-10-26T00:13:56.419Z,13.80
2022-10-26T00:16:27.084Z,11.93
2022-10-26T00:18:55.943Z,14.30
2022-10-26T00:21:24.426Z,16.27
2022-10-26T00:23:52.857Z,17.17
2022-10-26T00:26:22.684Z,20.07
2022-10-26T00:28:53.751Z,12.17
2022-10-26T00:31:22.229Z,9.77
2022-10-26T00:33:54.910Z,13.03
2022-10-26T00:36:24.175Z,10.20
2022-10-26T00:38:53.197Z,15.17
2022-10-26T00:41:25.302Z,15.33
2022-10-26T00:43:54.341Z,14.50
2022-10-26T00:46:25.596Z,10.53
2022-10-26T00:48:57.115Z,26.70
2022-10-26T00:51:32.927Z,15.50
2022-10-26T00:54:03.287Z,9.07
2022-10-26T00:56:34.180Z,13.63
2022-10-26T00:59:04.745Z,9.10
2022-10-26T01:01:35.294Z,13.60
2022-10-26T01:04:03.912Z,13.90
2022-10-26T01:06:34.347Z,11.23
2022-10-26T01:09:02.870Z,11.80
2022-10-26T01:11:32.873Z,11.77
2022-10-26T01:14:02.751Z,18.50
2022-10-26T01:16:48.032Z,11.73
2022-10-26T01:19:43.583Z,7.90
2022-10-26T01:22:18.666Z,12.23
2022-10-26T01:25:01.551Z,22.77
2022-10-26T01:27:35.352Z,11.93
2022-10-26T01:30:28.128Z,11.50
2022-10-26T01:33:23.540Z,9.57
2022-10-26T01:35:57.642Z,8.83
2022-10-26T01:38:31.852Z,11.60
2022-10-26T01:41:08.943Z,9.20
2022-10-26T01:43:41.154Z,8.70
2022-10-26T01:46:12.802Z,16.07
2022-10-26T01:48:43.424Z,13.30
2022-10-26T01:51:12.761Z,8.03
2022-10-26T01:53:46.909Z,11.17
2022-10-26T01:56:20.853Z,12.03
2022-10-26T01:59:14.863Z,11.40
2022-10-26T02:02:13.078Z,15.00
2022-10-26T02:04:54.049Z,10.57
2022-10-26T02:07:32.473Z,14.73
2022-10-26T02:10:09.795Z,10.33
2022-10-26T02:12:46.634Z,8.30
2022-10-26T02:15:21.952Z,11.00
2022-10-26T02:17:57.588Z,15.37
2022-10-26T02:20:29.396Z,7.77
2022-10-26T02:22:59.373Z,10.70
2022-10-26T02:25:30.653Z,9.57
2022-10-26T02:28:03.986Z,29.07
2022-10-26T02:30:33.696Z,11.97
2022-10-26T02:33:05.937Z,11.17
2022-10-26T02:35:39.100Z,11.40
2022-10-26T02:38:12.148Z,7.47
2022-10-26T02:40:41.137Z,8.87
2022-10-26T02:43:14.029Z,15.10
2022-10-26T02:45:47.654Z,12.90
2022-10-26T02:48:18.090Z,10.60
2022-10-26T02:50:54.841Z,10.10
2022-10-26T02:53:32.029Z,10.77
2022-10-26T02:56:05.363Z,11.47
2022-10-26T02:58:43.129Z,15.87
2022-10-26T03:01:11.741Z,6.87
2022-10-26T03:03:42.601Z,7.27
2022-10-26T03:06:11.122Z,5.93
2022-10-26T03:08:39.553Z,9.77
2022-10-26T03:11:08.093Z,13.90
2022-10-26T03:13:36.510Z,8.10
2022-10-26T03:16:04.970Z,8.80
2022-10-26T03:18:33.394Z,9.63
2022-10-26T03:21:03.312Z,10.23
2022-10-26T03:23:31.745Z,13.73
2022-10-26T03:26:00.924Z,9.30
2022-10-26T03:28:29.343Z,17.00
2022-10-26T03:30:57.806Z,11.77
2022-10-26T03:33:28.049Z,8.93
2022-10-26T03:35:57.801Z,10.07
2022-10-26T03:38:27.656Z,10.07
2022-10-26T03:40:56.139Z,9.53
2022-10-26T03:43:24.594Z,10.43
2022-10-26T03:45:53.074Z,9.97
2022-10-26T03:48:21.549Z,12.70
2022-10-26T03:50:50.797Z,9.37
2022-10-26T03:53:19.232Z,9.23
2022-10-26T03:55:49.357Z,12.27
2022-10-26T03:58:17.886Z,17.27
2022-10-26T04:00:46.352Z,9.57
2022-10-26T04:03:14.775Z,9.47
2022-10-26T04:05:43.208Z,9.30
2022-10-26T04:08:11.830Z,12.33
2022-10-26T04:10:40.229Z,5.93
2022-10-26T04:13:11.185Z,7.47
2022-10-26T04:15:39.883Z,10.57
2022-10-26T04:18:08.316Z,9.43
2022-10-26T04:20:39.091Z,11.90
2022-10-26T04:23:09.162Z,12.27
2022-10-26T04:25:37.781Z,10.03
2022-10-26T04:28:06.903Z,9.50
2022-10-26T04:30:37.485Z,12.77
2022-10-26T04:33:07.096Z,12.23
2022-10-26T04:35:35.851Z,10.00
2022-10-26T04:38:06.155Z,8.60
2022-10-26T04:40:36.078Z,14.80
2022-10-26T04:43:04.489Z,12.50
2022-10-26T04:45:33.004Z,13.60
2022-10-26T04:48:05.062Z,8.97
2022-10-26T04:50:34.145Z,11.40
2022-10-26T04:53:04.930Z,9.83
2022-10-26T04:55:33.509Z,9.50
2022-10-26T04:58:02.377Z,15.83
2022-10-26T05:00:32.969Z,17.13
2022-10-26T05:03:03.765Z,9.97
2022-10-26T05:05:35.087Z,12.70
2022-10-26T05:08:03.577Z,16.53
2022-10-26T05:10:32.057Z,19.20
2022-10-26T05:13:02.149Z,19.33
2022-10-26T05:15:31.255Z,26.60
2022-10-26T05:18:02.883Z,18.90
2022-10-26T05:20:34.960Z,22.50
2022-10-26T05:23:04.996Z,17.23
2022-10-26T05:25:35.778Z,35.13
2022-10-26T05:28:06.517Z,30.63
2022-10-26T05:30:35.219Z,10.53
2022-10-26T05:33:04.244Z,14.77
2022-10-26T05:35:34.793Z,15.70
2022-10-26T05:38:08.862Z,22.40
2022-10-26T05:40:37.817Z,27.40
2022-10-26T05:43:06.238Z,15.30
2022-10-26T05:45:34.743Z,9.27
2022-10-26T05:48:03.382Z,12.07
2022-10-26T05:50:33.435Z,16.67
2022-10-26T05:53:01.906Z,20.93
2022-10-26T05:55:31.528Z,18.90
2022-10-26T05:58:00.549Z,25.50
2022-10-26T06:00:30.479Z,13.77
2022-10-26T06:03:23.838Z,17.03
2022-10-26T06:05:56.629Z,17.30
2022-10-26T06:08:26.861Z,17.20
2022-10-26T06:10:59.463Z,17.87
2022-10-26T06:13:28.459Z,13.93
2022-10-26T06:16:10.983Z,22.20
2022-10-26T06:18:51.127Z,14.77
2022-10-26T06:21:34.138Z,23.40
2022-10-26T06:24:09.576Z,10.23
2022-10-26T06:26:45.369Z,21.77
2022-10-26T06:29:26.421Z,33.00
2022-10-26T06:31:55.056Z,23.30
2022-10-26T06:34:28.572Z,31.57
2022-10-26T06:37:01.944Z,15.93
2022-10-26T06:39:33.223Z,15.53
2022-10-26T06:42:02.184Z,27.93
2022-10-26T06:44:31.333Z,22.80
2022-10-26T06:47:07.101Z,42.37
2022-10-26T06:49:39.468Z,41.53
2022-10-26T06:52:17.162Z,31.70
2022-10-26T06:54:49.793Z,26.03
2022-10-26T06:57:20.335Z,29.93
2022-10-26T06:59:52.222Z,27.60
2022-10-26T07:02:21.114Z,23.63
2022-10-26T07:04:50.003Z,23.83
2022-10-26T07:07:22.489Z,13.47
2022-10-26T07:09:51.462Z,18.23
2022-10-26T07:12:20.065Z,23.20
2022-10-26T07:14:48.475Z,19.47
2022-10-26T07:17:17.145Z,21.83
2022-10-26T07:19:45.827Z,22.67
2022-10-26T07:22:14.310Z,20.17
2022-10-26T07:24:44.115Z,21.07
2022-10-26T07:27:12.539Z,26.83
2022-10-26T07:29:41.244Z,24.80
2022-10-26T07:32:10.075Z,21.10
2022-10-26T07:34:38.532Z,23.33
2022-10-26T07:37:07.387Z,29.73
2022-10-26T07:39:35.855Z,30.67
2022-10-26T07:42:05.834Z,38.77
2022-10-26T07:44:35.139Z,43.23
2022-10-26T07:47:03.585Z,47.50
2022-10-26T07:49:32.048Z,20.57
2022-10-26T07:52:00.482Z,38.43
2022-10-26T07:54:28.992Z,23.20
2022-10-26T07:56:58.128Z,24.27
2022-10-26T07:59:28.293Z,22.80
2022-10-26T08:01:56.786Z,28.70
2022-10-26T08:04:25.303Z,22.07
2022-10-26T08:06:53.756Z,22.50
2022-10-26T08:09:22.172Z,26.20
2022-10-26T08:11:50.607Z,29.93
2022-10-26T08:14:19.031Z,27.80
2022-10-26T08:16:52.605Z,27.60
2022-10-26T08:19:21.382Z,30.57
2022-10-26T08:21:49.813Z,30.63
2022-10-26T08:24:19.110Z,28.77
2022-10-26T08:26:47.566Z,32.43
2022-10-26T08:29:16.140Z,41.17
2022-10-26T08:31:44.584Z,19.00
2022-10-26T08:34:14.459Z,27.10
2022-10-26T08:36:42.895Z,28.10
2022-10-26T08:39:11.297Z,23.23
2022-10-26T08:41:43.483Z,23.80
2022-10-26T08:44:26.250Z,22.97
2022-10-26T08:46:59.658Z,21.77
2022-10-26T08:49:33.960Z,29.27
2022-10-26T08:52:03.994Z,26.97
2022-10-26T08:54:38.566Z,24.87
2022-10-26T08:57:17.801Z,26.63
2022-10-26T08:59:52.354Z,27.10
2022-10-26T09:02:21.757Z,22.00
2022-10-26T09:04:52.411Z,29.23
2022-10-26T09:07:36.955Z,22.70
2022-10-26T09:10:18.679Z,21.97
2022-10-26T09:12:52.766Z,25.67
2022-10-26T09:15:33.830Z,21.93
2022-10-26T09:18:12.667Z,19.37
2022-10-26T09:21:12.626Z,19.90
2022-10-26T09:23:58.535Z,19.60
2022-10-26T09:26:33.609Z,17.43
2022-10-26T09:29:06.137Z,22.07
2022-10-26T09:31:43.266Z,18.50
2022-10-26T09:34:22.846Z,23.67
2022-10-26T09:36:56.250Z,23.77
2022-10-26T09:39:34.953Z,23.43
2022-10-26T09:42:13.573Z,21.40
2022-10-26T09:44:46.225Z,23.40
2022-10-26T09:47:22.580Z,26.17
2022-10-26T09:49:57.111Z,24.73
2022-10-26T09:52:27.007Z,27.17
2022-10-26T09:54:55.411Z,28.70
2022-10-26T09:57:25.129Z,21.60
2022-10-26T09:59:55.810Z,23.20
2022-10-26T10:02:38.443Z,20.90
2022-10-26T10:05:39.206Z,22.37
2022-10-26T10:08:18.187Z,20.83
2022-10-26T10:11:01.749Z,21.07
2022-10-26T10:13:32.888Z,38.63
2022-10-26T10:16:06.629Z,31.07
2022-10-26T10:18:38.602Z,29.07
2022-10-26T10:21:08.890Z,27.00
2022-10-26T10:23:49.846Z,21.70
2022-10-26T10:26:18.579Z,21.17
2022-10-26T10:28:58.500Z,27.47
2022-10-26T10:31:31.122Z,24.97
2022-10-26T10:34:00.074Z,27.40
2022-10-26T10:36:31.827Z,20.80
2022-10-26T10:39:02.616Z,32.77
2022-10-26T10:41:36.555Z,24.30
2022-10-26T10:44:12.346Z,16.00
2022-10-26T10:46:41.175Z,20.50
2022-10-26T10:49:22.833Z,16.77
2022-10-26T10:51:51.801Z,23.00
2022-10-26T10:54:28.447Z,26.30
2022-10-26T10:57:04.945Z,20.97
2022-10-26T10:59:53.957Z,20.37
2022-10-26T11:02:59.007Z,22.07
2022-10-26T11:05:43.093Z,21.10
2022-10-26T11:08:18.405Z,26.50
2022-10-26T11:10:53.900Z,30.77
2022-10-26T11:13:27.243Z,35.57
2022-10-26T11:16:03.123Z,44.50
2022-10-26T11:18:36.345Z,25.33
2022-10-26T11:21:15.512Z,25.43
2022-10-26T11:23:50.889Z,26.83
2022-10-26T11:26:26.486Z,20.90
2022-10-26T11:29:00.381Z,25.13
2022-10-26T11:31:35.196Z,35.63
2022-10-26T11:34:15.242Z,22.70
2022-10-26T11:36:47.652Z,20.20
2022-10-26T11:39:24.031Z,26.00
2022-10-26T11:41:59.461Z,21.03
2022-10-26T11:44:34.589Z,15.53
2022-10-26T11:47:08.513Z,19.80
2022-10-26T11:49:43.591Z,21.47
2022-10-26T11:52:18.948Z,18.30
2022-10-26T11:54:52.302Z,19.93
2022-10-26T11:57:24.085Z,16.07
2022-10-26T11:59:56.022Z,17.93
2022-10-26T12:02:26.252Z,21.77
2022-10-26T12:05:03.924Z,16.13
2022-10-26T12:07:34.555Z,23.73
2022-10-26T12:10:04.972Z,16.33
2022-10-26T12:12:39.780Z,16.07
2022-10-26T12:15:20.352Z,17.33
2022-10-26T12:17:55.201Z,17.97
2022-10-26T12:21:02.595Z,20.10
2022-10-26T12:23:51.235Z,22.50
2022-10-26T12:26:50.628Z,18.03
2022-10-26T12:29:46.483Z,20.47
2022-10-26T12:32:51.771Z,22.65
2022-10-26T12:35:44.050Z,24.38
2022-10-26T12:38:50.117Z,27.65
2022-10-26T12:41:26.278Z,20.92
2022-10-26T12:43:59.753Z,16.70
2022-10-26T12:46:45.631Z,12.45
2022-10-26T12:49:59.077Z,18.27
2022-10-26T12:52:43.895Z,18.23
2022-10-26T12:55:48.256Z,16.05
2022-10-26T12:58:52.960Z,14.10
2022-10-26T13:01:51.752Z,13.60
2022-10-26T13:04:55.932Z,9.52
2022-10-26T13:07:25.801Z,14.25
2022-10-26T13:10:01.693Z,13.38
2022-10-26T13:12:39.514Z,13.00
2022-10-26T13:15:21.810Z,21.38
2022-10-26T13:18:02.243Z,14.32
2022-10-26T13:20:32.466Z,15.95
2022-10-26T13:25:32.716Z,20.57
2022-10-26T13:28:05.367Z,16.77
2022-10-26T13:30:45.510Z,21.43
2022-10-26T13:33:33.957Z,21.50
2022-10-26T13:36:05.942Z,20.37
2022-10-26T13:38:38.144Z,15.47
2022-10-26T13:41:24.151Z,17.63
2022-10-26T13:43:54.180Z,22.53
2022-10-26T13:46:29.379Z,17.07
2022-10-26T13:49:07.267Z,21.40
2022-10-26T13:51:42.648Z,20.00
2022-10-26T13:54:24.163Z,21.23
2022-10-26T13:57:14.913Z,18.20
2022-10-26T13:59:46.992Z,18.27
2022-10-26T14:02:19.681Z,14.30
2022-10-26T14:04:54.155Z,14.73
2022-10-26T14:07:25.621Z,19.97
2022-10-26T14:09:56.306Z,19.23
2022-10-26T14:12:28.503Z,18.50
2022-10-26T14:15:07.110Z,20.80
2022-10-26T14:17:36.221Z,14.40
2022-10-26T14:20:07.024Z,20.37
2022-10-26T14:22:35.791Z,15.60
2022-10-26T14:25:04.539Z,16.80
2022-10-26T14:27:39.377Z,17.83
2022-10-26T14:30:23.760Z,14.73
2022-10-26T14:32:53.220Z,11.27
2022-10-26T14:35:27.190Z,14.93
2022-10-26T14:37:59.384Z,18.50
2022-10-26T14:40:30.759Z,16.23
2022-10-26T14:43:01.959Z,13.03
2022-10-26T14:45:49.203Z,16.60
2022-10-26T14:48:26.208Z,13.67
2022-10-26T14:51:18.641Z,17.73
2022-10-26T14:53:51.101Z,22.03
2022-10-26T14:56:28.848Z,21.43
2022-10-26T14:58:59.579Z,21.83
2022-10-26T15:01:36.245Z,17.60
2022-10-26T15:04:08.226Z,25.23
2022-10-26T15:06:44.918Z,24.07
2022-10-26T15:09:41.113Z,19.90
2022-10-26T15:12:24.739Z,18.27
2022-10-26T15:14:54.303Z,13.30
2022-10-26T15:17:27.742Z,20.37
2022-10-26T15:19:58.062Z,31.70
2022-10-26T15:22:32.117Z,25.67
2022-10-26T15:25:03.892Z,31.27
2022-10-26T15:27:32.841Z,31.07
2022-10-26T15:30:19.304Z,20.33
2022-10-26T15:32:48.695Z,21.50
2022-10-26T15:35:28.443Z,54.17
2022-10-26T15:38:01.254Z,28.50
2022-10-26T15:40:31.313Z,33.60
2022-10-26T15:43:02.051Z,31.87
2022-10-26T15:45:35.115Z,23.87
2022-10-26T15:48:20.734Z,23.93
2022-10-26T15:50:50.220Z,28.23
2022-10-26T15:53:23.713Z,27.13
2022-10-26T15:55:55.036Z,42.90
2022-10-26T15:58:24.178Z,20.83
2022-10-26T16:00:53.194Z,22.50
2022-10-26T16:03:24.514Z,23.77
2022-10-26T16:05:58.139Z,18.03
2022-10-26T16:08:30.824Z,20.83
2022-10-26T16:10:59.772Z,22.53
2022-10-26T16:13:30.768Z,22.37
2022-10-26T16:16:00.061Z,23.43
2022-10-26T16:18:28.727Z,31.47
2022-10-26T16:20:57.443Z,26.00
2022-10-26T16:23:27.505Z,21.93
2022-10-26T16:25:56.504Z,49.17
2022-10-26T16:28:25.187Z,23.97
2022-10-26T16:30:59.634Z,26.07
2022-10-26T16:33:30.037Z,28.63
2022-10-26T16:35:59.923Z,25.90
2022-10-26T16:38:31.693Z,28.03
2022-10-26T16:41:03.959Z,63.93
2022-10-26T16:43:33.918Z,36.97
2022-10-26T16:46:06.166Z,45.97
2022-10-26T16:48:38.106Z,40.07
2022-10-26T16:51:08.947Z,41.97
2022-10-26T16:53:39.238Z,36.00
2022-10-26T16:56:10.867Z,30.80
2022-10-26T16:58:40.257Z,26.27
2022-10-26T17:01:10.831Z,27.07
2022-10-26T17:03:39.770Z,24.27
2022-10-26T17:06:09.392Z,22.60
2022-10-26T17:08:39.849Z,25.07
2022-10-26T17:11:10.453Z,34.93
2022-10-26T17:13:40.016Z,23.77
2022-10-26T17:16:11.594Z,30.40
2022-10-26T17:18:41.904Z,28.27
2022-10-26T17:21:11.445Z,33.10
2022-10-26T17:23:41.752Z,33.83
2022-10-26T17:26:12.335Z,33.60
2022-10-26T17:28:41.278Z,45.77
2022-10-26T17:31:12.471Z,45.80
2022-10-26T17:33:43.412Z,32.83
2022-10-26T17:36:13.933Z,27.33
2022-10-26T17:38:44.947Z,35.97
2022-10-26T17:41:15.855Z,31.03
2022-10-26T17:43:46.367Z,35.23
2022-10-26T17:46:17.323Z,30.60
2022-10-26T17:48:46.833Z,30.60
2022-10-26T17:51:17.211Z,48.77
2022-10-26T17:53:50.120Z,47.63
2022-10-26T17:56:21.388Z,34.37
2022-10-26T17:58:53.868Z,29.10
2022-10-26T18:01:23.102Z,33.53
2022-10-26T18:03:52.002Z,33.83
2022-10-26T18:06:21.201Z,32.40
2022-10-26T18:08:51.438Z,29.67
2022-10-26T18:11:26.898Z,35.50
2022-10-26T18:13:56.846Z,47.10
2022-10-26T18:16:26.782Z,30.60
2022-10-26T18:19:01.571Z,40.07
2022-10-26T18:21:32.774Z,53.00
2022-10-26T18:24:03.116Z,40.87
2022-10-26T18:26:32.582Z,47.20
2022-10-26T18:29:03.260Z,48.70
2022-10-26T18:31:34.874Z,41.83
2022-10-26T18:34:05.065Z,52.07
2022-10-26T18:36:34.159Z,61.83
2022-10-26T18:39:04.782Z,36.63
2022-10-26T18:41:33.729Z,37.00
2022-10-26T18:44:02.851Z,44.60
2022-10-26T18:46:33.970Z,40.60
2022-10-26T18:49:02.816Z,65.80
2022-10-26T18:51:33.063Z,28.33
2022-10-26T18:54:03.984Z,36.10
2022-10-26T18:56:33.626Z,27.20
2022-10-26T18:59:02.854Z,38.77
2022-10-26T19:01:33.568Z,34.03
2022-10-26T19:04:04.371Z,33.23
2022-10-26T19:06:34.679Z,38.33
2022-10-26T19:09:06.354Z,33.87
2022-10-26T19:11:35.535Z,34.37
2022-10-26T19:14:04.338Z,29.83
2022-10-26T19:16:45.463Z,34.90
2022-10-26T19:19:15.061Z,44.77
2022-10-26T19:21:43.791Z,43.23
2022-10-26T19:24:16.666Z,38.90
2022-10-26T19:26:45.515Z,32.77
2022-10-26T19:29:16.741Z,36.13
2022-10-26T19:31:47.250Z,35.83
2022-10-26T19:34:17.561Z,26.77
2022-10-26T19:36:47.523Z,47.77
2022-10-26T19:39:18.652Z,36.23
2022-10-26T19:41:48.141Z,28.93
2022-10-26T19:44:17.954Z,28.00
2022-10-26T19:46:48.492Z,25.37
2022-10-26T19:49:18.501Z,26.53
2022-10-26T19:51:48.490Z,54.57
2022-10-26T19:54:18.705Z,43.33
2022-10-26T19:56:48.310Z,49.63
2022-10-26T19:59:17.110Z,30.37
2022-10-26T20:01:46.315Z,40.83
2022-10-26T20:04:15.140Z,28.67
2022-10-26T20:06:44.194Z,27.30
2022-10-26T20:09:13.158Z,34.67
2022-10-26T20:11:43.543Z,29.40
2022-10-26T20:14:14.232Z,37.27
2022-10-26T20:16:43.187Z,27.73
2022-10-26T20:19:11.958Z,27.53
2022-10-26T20:21:41.554Z,30.73
2022-10-26T20:24:10.675Z,25.43
2022-10-26T20:26:40.432Z,46.00
2022-10-26T20:29:11.296Z,27.20
2022-10-26T20:31:41.411Z,37.80
2022-10-26T20:34:10.186Z,28.53
2022-10-26T20:36:38.922Z,35.53
2022-10-26T20:39:08.191Z,26.17
2022-10-26T20:41:43.074Z,29.60
2022-10-26T20:44:21.623Z,37.13
2022-10-26T20:46:51.126Z,31.67
2022-10-26T20:49:20.422Z,24.67
2022-10-26T20:52:19.569Z,25.93
2022-10-26T20:54:52.755Z,27.37
2022-10-26T20:57:25.636Z,32.20
2022-10-26T20:59:59.296Z,31.00
2022-10-26T21:02:29.423Z,23.43
2022-10-26T21:04:58.161Z,28.53
2022-10-26T21:07:26.873Z,21.70
2022-10-26T21:09:55.668Z,30.00
2022-10-26T21:12:24.682Z,32.60
2022-10-26T21:14:53.397Z,22.83
2022-10-26T21:17:23.914Z,26.87
2022-10-26T21:19:52.701Z,35.90
2022-10-26T21:22:21.429Z,44.63
2022-10-26T21:24:50.154Z,31.93
2022-10-26T21:27:18.879Z,27.57
2022-10-26T21:29:47.590Z,31.97
2022-10-26T21:32:16.333Z,41.77
2022-10-26T21:34:46.491Z,27.73
2022-10-26T21:37:15.317Z,29.17
2022-10-26T21:39:44.058Z,31.30
2022-10-26T21:42:15.393Z,21.83
2022-10-26T21:44:44.013Z,73.53
2022-10-26T21:47:12.808Z,57.13
2022-10-26T21:52:16.502Z,34.27
2022-10-26T21:54:45.231Z,32.60
2022-10-26T21:57:13.810Z,25.23
2022-10-26T21:59:42.766Z,38.90
2022-10-26T22:02:11.428Z,39.13
2022-10-26T22:04:40.338Z,32.97
2022-10-26T22:07:08.951Z,22.87
2022-10-26T22:09:49.385Z,24.90
2022-10-26T22:12:27.573Z,20.40
2022-10-26T22:14:56.399Z,57.30
2022-10-26T22:17:25.161Z,31.57
2022-10-26T22:19:54.014Z,30.93
2022-10-26T22:22:22.664Z,24.60
2022-10-26T22:24:52.728Z,25.77
2022-10-26T22:27:21.774Z,30.10
2022-10-26T22:29:50.469Z,16.87
2022-10-26T22:32:19.208Z,20.67
2022-10-26T22:34:50.652Z,18.50
2022-10-26T22:37:19.507Z,18.53
2022-10-26T22:42:23.383Z,25.27
2022-10-26T22:44:52.382Z,19.93
2022-10-26T22:47:21.109Z,18.80
2022-10-26T22:49:49.836Z,21.83
2022-10-26T22:52:18.751Z,24.17
2022-10-26T22:54:47.484Z,20.93
2022-10-26T22:57:16.311Z,21.13
2022-10-26T22:59:46.486Z,25.13
2022-10-26T23:02:15.496Z,19.83
2022-10-26T23:04:44.390Z,30.97
2022-10-26T23:07:13.182Z,26.97
2022-10-26T23:09:42.010Z,40.10
2022-10-26T23:12:11.567Z,32.23
2022-10-26T23:14:40.551Z,27.17
2022-10-26T23:17:10.663Z,20.33
2022-10-26T23:19:39.403Z,17.47
2022-10-26T23:22:08.143Z,20.23
2022-10-26T23:24:36.868Z,32.83
2022-10-26T23:27:05.706Z,17.90
2022-10-26T23:29:34.601Z,21.30
2022-10-26T23:32:03.369Z,22.03
2022-10-26T23:34:33.539Z,20.27
2022-10-26T23:37:02.313Z,17.50
2022-10-26T23:39:31.018Z,17.67
2022-10-26T23:41:59.855Z,17.27
2022-10-26T23:44:28.650Z,14.60
2022-10-26T23:46:57.414Z,17.00
2022-10-26T23:49:26.035Z,17.23
2022-10-26T23:51:56.199Z,23.90
2022-10-26T23:54:24.851Z,18.27
2022-10-26T23:56:53.508Z,18.10
2022-10-26T23:59:22.733Z,20.70
